Terminal Aerodrome Forecast
Issued by NWS Quad Cities IA IL

Home | Current Version | Previous Version | Text Only | Print | Product List | Glossary On
Versions: 1 2 3 4 5 6 7 8 9 10 11 12 13 14 15 16 17 18 19 20 21 22 23 24 25 26 27 28 29 30 31 32
539
FTUS43 KDVN 261103 AAA
TAFDBQ
TAF AMD
KDBQ 261103Z 2611/2706 29020G30KT P6SM -RA FEW080 OVC100
      TEMPO 2611/2614 29028G45KT 4SM TSRA BR BKN040CB
     FM261500 22010KT P6SM BKN050 PROB30 2700/2703 4SM TSRA
      BKN040CB=

USA.gov is the U.S. government's official web portal to all federal, state and local government web resources and services.